SondeTracker

Meteorological Radiosondes Database

Operations

Sounding was ended - last measurement: 2022-12-06 12:31:06z

MAP
About Radiosonde

Number: T3210929

Launch Site: Confins (BR)

Type: RS41

AUX: NO

Frequency: 404.000 MHz

Max Speed: 126 km/h at 13649 m

Average Speed: 67.37 km/h

Max Altitude: 21663 m

Average Ascent Speed: 7.75 m/s

Average Descent Speed: 11.85 m/s

Status: UNKNOWN

Status Changes
Launch Site Type AUX Frequency Status Finder Landing Point Description Changes made by
APRS Statistics

Received Frames: 41

First Frame [UTC]: 2022-12-06 11:59:30z

Last Frame [UTC]: 2022-12-06 12:31:06z

Receivers: PY4CCL-11

Flight Time: 00:31:36 h

Distance From First Measurement: 26.80 km

Nearest City: Sete Lagoas (BR) [18.98 km]

Nearest Hunter: PU4LSB [47.35 km]

Ground Altitude: 743 m

Distance from QTH: 0.00 km

APRS Data
Receiver Number Date/Time [UTC] φ λ Course [°] Speed [km/h] Altitude [m] Description
PY4CCL-11T32109292022-12-06 12:31:06-19.3913-44.0819357211736Clb=-9.9m/s p=223.7hPa t=-49.3C h=62.2% 404.000MHz Type=RS41-SGP TxOff=8h16m rdzTTGOsonde
PY4CCL-11T32109292022-12-06 12:30:24-19.3984-44.0856208312190Clb=-9.8m/s p=208.7hPa t=-53.1C h=74.3% 404.000MHz Type=RS41-SGP TxOff=8h17m rdzTTGOsonde
PY4CCL-11T32109292022-12-06 12:29:42-19.4069-44.08912010212613Clb=-12.7m/s p=195.1hPa t=-56.6C h=59.7% 404.000MHz Type=RS41-SGP TxOff=8h18m rdzTTGOsonde
PY4CCL-11T32109292022-12-06 12:29:20-19.4122-44.0911710412831Clb=-9.1m/s p=188.5hPa t=-58.3C h=42.7% 404.000MHz Type=RS41-SGP rdzTTGOsonde
PY4CCL-11T32109292022-12-06 12:27:12-19.4467-44.097835510013908Clb=-10.5m/s p=158.4hPa t=-64.6C h=19.6% 404.000MHz Type=RS41-SGP TxOff=8h20m rdzTTGOsonde
PY4CCL-11T32109292022-12-06 12:26:52-19.4512-44.09683428714113Clb=-10.5m/s p=153.1hPa t=-65.2C h=16.5% 404.000MHz Type=RS41-SGP TxOff=8h20m rdzTTGOsonde
PY4CCL-11T32109292022-12-06 12:26:10-19.458-44.09293246314553Clb=-10.5m/s p=142.5hPa t=-67.7C h=15.3% 404.000MHz Type=RS41-SGP TxOff=8h21m rdzTTGOsonde
PY4CCL-11T32109292022-12-06 12:25:26-19.4635-44.08833196915027Clb=-11.4m/s p=131.6hPa t=-71.2C h=15.7% 404.000MHz Type=RS41-SGP TxOff=8h22m rdzTTGOsonde
PY4CCL-11T32109292022-12-06 12:24:22-19.4703-44.08063157415753Clb=-12.2m/s p=116.4hPa t=-72.3C h=10.6% 404.000MHz Type=RS41-SGP TxOff=8h23m rdzTTGOsonde
PY4CCL-11T32109292022-12-06 12:22:24-19.48-44.06012816917237Clb=-13.2m/s p=90.4hPa t=-75.2C h=8.2% 404.000MHz Type=RS41-SGP rdzTTGOsonde
PY4CCL-11T32109292022-12-06 12:22:02-19.4807-44.05642866517534Clb=-14.4m/s p=85.9hPa t=-75.6C h=7.8% 404.000MHz Type=RS41-SGP rdzTTGOsonde
PY4CCL-11T32109292022-12-06 12:21:20-19.4816-44.04882735918130Clb=-15.4m/s p=77.5hPa t=-73.8C h=5.9% 404.000MHz Type=RS41-SGP TxOff=8h26m rdzTTGOsonde
PY4CCL-11T32109292022-12-06 12:20:18-19.4819-44.04112773719059Clb=-15.1m/s p=66.2hPa t=-69.1C h=3.5% 404.000MHz Type=RS41-SGP TxOff=8h27m rdzTTGOsonde
PY4CCL-11T32109292022-12-06 12:18:34-19.4834-44.02872693120192Clb=-18.7m/s p=55.0hPa t=-67.6C h=2.6% 404.000MHz Type=RS41-SGP TxOff=8h29m rdzTTGOsonde
PY4CCL-11T32109292022-12-06 12:17:08-19.4837-44.01922644121663Clb=-8.6m/s p=43.0hPa t=-66.2C h=2.6% 404.000MHz Type=RS41-SGP rdzTTGOsonde
PY4CCL-11T32109292022-12-06 12:16:24-19.4836-44.01352725221461Clb=6.7m/s p=44.5hPa t=-66.0C h=2.7% 404.000MHz Type=RS41-SGP rdzTTGOsonde
PY4CCL-11T32109292022-12-06 12:15:42-19.4837-44.00812805621139Clb=8.8m/s p=46.9hPa t=-66.9C h=3.1% 404.000MHz Type=RS41-SGP rdzTTGOsonde
PY4CCL-11T32109292022-12-06 12:14:40-19.4843-44.00042943320651Clb=6.3m/s p=50.8hPa t=-67.6C h=3.5% 404.000MHz Type=RS41-SGP rdzTTGOsonde
PY4CCL-11T32109292022-12-06 12:13:36-19.4842-43.99592623020182Clb=5.6m/s p=54.9hPa t=-67.9C h=4.3% 404.000MHz Type=RS41-SGP rdzTTGOsonde
PY4CCL-11T32109292022-12-06 12:11:54-19.4854-43.98342765019437Clb=7.0m/s p=62.1hPa t=-68.7C h=6.2% 404.000MHz Type=RS41-SGP rdzTTGOsonde
PY4CCL-11T32109292022-12-06 12:11:34-19.4858-43.9812775219291Clb=9.0m/s p=63.7hPa t=-69.0C h=7.0% 404.000MHz Type=RS41-SGP rdzTTGOsonde
PY4CCL-11T32109292022-12-06 12:10:52-19.486-43.97642613918977Clb=7.0m/s p=67.1hPa t=-69.2C h=8.2% 404.000MHz Type=RS41-SGP rdzTTGOsonde
PY4CCL-11T32109292022-12-06 12:10:30-19.4859-43.97392724318808Clb=9.4m/s p=69.0hPa t=-69.9C h=9.3% 404.000MHz Type=RS41-SGP rdzTTGOsonde
PY4CCL-11T32109292022-12-06 12:09:02-19.4869-43.96252725618166Clb=4.6m/s p=76.9hPa t=-73.9C h=14.6% 404.000MHz Type=RS41-SGP rdzTTGOsonde
PY4CCL-11T32109292022-12-06 12:08:40-19.4875-43.95872856718015Clb=10.4m/s p=78.9hPa t=-73.6C h=15.1% 404.000MHz Type=RS41-SGP rdzTTGOsonde
PY4CCL-11T32109292022-12-06 12:07:56-19.4887-43.95042707817715Clb=9.9m/s p=83.0hPa t=-74.9C h=16.1% 404.000MHz Type=RS41-SGP rdzTTGOsonde
PY4CCL-11T32109292022-12-06 12:07:36-19.4894-43.94652926917560Clb=7.2m/s p=85.3hPa t=-75.6C h=17.5% 404.000MHz Type=RS41-SGP rdzTTGOsonde
PY4CCL-11T32109292022-12-06 12:06:34-19.492-43.93572927217086Clb=7.0m/s p=92.5hPa t=-75.7C h=17.8% 404.000MHz Type=RS41-SGP rdzTTGOsonde
PY4CCL-11T32109292022-12-06 12:06:14-19.4931-43.93192916516933Clb=9.8m/s p=95.0hPa t=-75.4C h=17.7% 404.000MHz Type=RS41-SGP rdzTTGOsonde
PY4CCL-11T32109292022-12-06 12:05:32-19.4963-43.92372956516584Clb=7.2m/s p=100.9hPa 404.000MHz Type=RS41-SGP rdzTTGOsonde
PY4CCL-11T32109292022-12-06 12:04:50-19.4996-43.91653008016234Clb=7.9m/s p=107.1hPa 404.000MHz Type=RS41-SGP rdzTTGOsonde
PY4CCL-11T32109292022-12-06 12:04:30-19.502-43.91293238116059Clb=8.4m/s p=110.3hPa 404.000MHz Type=RS41-SGP rdzTTGOsonde
PY4CCL-11T32109292022-12-06 12:03:48-19.5074-43.90753058115743Clb=3.9m/s p=116.6hPa 404.000MHz Type=RS41-SGP rdzTTGOsonde
PY4CCL-11T32109292022-12-06 12:03:28-19.5099-43.90493117415572Clb=11.1m/s p=119.8hPa 404.000MHz Type=RS41-SGP rdzTTGOsonde
PY4CCL-11T32109292022-12-06 12:03:06-19.5123-43.90283174415372Clb=7.3m/s p=124.1hPa 404.000MHz Type=RS41-SGP rdzTTGOsonde
PY4CCL-11T32109292022-12-06 12:02:44-19.5144-43.90063076315196Clb=10.8m/s p=127.8hPa 404.000MHz Type=RS41-SGP rdzTTGOsonde
PY4CCL-11T32109292022-12-06 12:01:34-19.5225-43.8933246314574Clb=8.2m/s p=141.9hPa 404.000MHz Type=RS41 rdzTTGOsonde
PY4CCL-11T32109292022-12-06 12:01:14-19.5251-43.8913266714401Clb=11.5m/s p=146.0hPa 404.000MHz Type=RS41 rdzTTGOsonde
PY4CCL-11T32109292022-12-06 12:00:54-19.5283-43.88933367814225Clb=3.6m/s p=150.3hPa 404.000MHz Type=RS41 rdzTTGOsonde
PY4CCL-11T32109292022-12-06 11:59:52-19.5425-43.8872812613649Clb=9.5m/s 404.000MHz Type=RS41 rdzTTGOsonde
PY4CCL-11T32109292022-12-06 11:59:30-19.5484-43.888712213460Clb=9.5m/s 404.000MHz Type=RS41 rdzTTGOsonde